createdAt,value
2022-12-18T00:00:08.266Z,84.03
2022-12-18T00:02:58.216Z,85.63
2022-12-18T00:05:58.947Z,89.30
2022-12-18T00:08:35.738Z,83.13
2022-12-18T00:11:15.168Z,80.37
2022-12-18T00:13:58.598Z,79.63
2022-12-18T00:16:37.941Z,82.60
2022-12-18T00:19:17.447Z,78.63
2022-12-18T00:21:54.028Z,79.37
2022-12-18T00:24:30.438Z,77.17
2022-12-18T00:27:11.242Z,82.67
2022-12-18T00:29:47.570Z,75.37
2022-12-18T00:32:29.482Z,83.40
2022-12-18T00:35:04.760Z,74.20
2022-12-18T00:37:38.552Z,84.23
2022-12-18T00:40:13.275Z,80.13
2022-12-18T00:42:58.665Z,79.67
2022-12-18T00:45:34.280Z,82.23
2022-12-18T00:48:07.676Z,81.57
2022-12-18T00:50:42.202Z,76.83
2022-12-18T00:53:17.567Z,79.23
2022-12-18T00:55:50.733Z,79.33
2022-12-18T00:58:25.580Z,82.13
2022-12-18T01:00:58.999Z,84.00
2022-12-18T01:03:32.264Z,73.43
2022-12-18T01:06:08.203Z,82.07
2022-12-18T01:08:41.305Z,95.83
2022-12-18T01:11:15.941Z,83.50
2022-12-18T01:13:50.189Z,72.30
2022-12-18T01:16:24.042Z,83.47
2022-12-18T01:18:57.214Z,74.37
2022-12-18T01:21:30.155Z,76.07
2022-12-18T01:24:05.230Z,85.23
2022-12-18T01:26:38.667Z,80.17
2022-12-18T01:29:12.867Z,77.90
2022-12-18T01:31:45.669Z,80.07
2022-12-18T01:36:53.134Z,53.20
2022-12-18T01:39:26.188Z,78.43
2022-12-18T01:42:05.128Z,85.20
2022-12-18T01:45:03.158Z,66.30
2022-12-18T01:47:40.103Z,70.20
2022-12-18T01:50:16.907Z,76.23
2022-12-18T01:52:52.697Z,81.73
2022-12-18T01:55:27.418Z,73.70
2022-12-18T01:58:02.504Z,75.97
2022-12-18T02:00:37.002Z,71.10
2022-12-18T02:03:10.021Z,71.00
2022-12-18T02:05:51.441Z,75.23
2022-12-18T02:08:34.990Z,76.60
2022-12-18T02:11:14.896Z,78.27
2022-12-18T02:13:55.137Z,72.83
2022-12-18T02:16:36.843Z,79.00
2022-12-18T02:19:38.818Z,83.03
2022-12-18T02:22:26.879Z,79.23
2022-12-18T02:25:13.900Z,84.50
2022-12-18T02:27:52.318Z,70.43
2022-12-18T02:30:28.911Z,77.47
2022-12-18T02:33:05.965Z,73.67
2022-12-18T02:35:43.212Z,65.87
2022-12-18T02:38:18.198Z,77.10
2022-12-18T02:40:55.621Z,78.03
2022-12-18T02:43:31.908Z,73.37
2022-12-18T02:46:32.220Z,65.67
2022-12-18T02:49:19.865Z,70.97
2022-12-18T02:51:57.816Z,72.57
2022-12-18T02:54:51.486Z,67.17
2022-12-18T02:57:35.092Z,79.30
2022-12-18T03:00:14.654Z,78.57
2022-12-18T03:02:54.162Z,75.47
2022-12-18T03:05:33.278Z,73.50
2022-12-18T03:08:13.765Z,75.60
2022-12-18T03:10:53.475Z,76.00
2022-12-18T03:13:31.219Z,70.97
2022-12-18T03:16:09.142Z,65.10
2022-12-18T03:18:48.547Z,72.63
2022-12-18T03:21:28.654Z,73.80
2022-12-18T03:24:02.777Z,71.50
2022-12-18T03:26:38.787Z,74.97
2022-12-18T03:29:20.312Z,79.07
2022-12-18T03:32:01.831Z,73.83
2022-12-18T03:34:38.439Z,70.60
2022-12-18T03:37:14.080Z,67.37
2022-12-18T03:39:47.430Z,75.50
2022-12-18T03:42:29.009Z,69.33
2022-12-18T03:45:13.330Z,63.43
2022-12-18T03:48:00.051Z,71.37
2022-12-18T03:50:42.119Z,71.50
2022-12-18T03:53:26.067Z,66.97
2022-12-18T03:56:01.265Z,65.07
2022-12-18T03:58:40.906Z,68.93
2022-12-18T04:01:32.984Z,64.23
2022-12-18T04:04:09.437Z,68.33
2022-12-18T04:06:47.463Z,66.20
2022-12-18T04:09:21.730Z,75.93
2022-12-18T04:11:55.212Z,68.20
2022-12-18T04:14:28.262Z,63.27
2022-12-18T04:17:02.836Z,63.43
2022-12-18T04:19:39.855Z,67.50
2022-12-18T04:22:14.617Z,60.90
2022-12-18T04:24:51.901Z,59.70
2022-12-18T04:27:34.033Z,46.55
2022-12-18T04:32:40.433Z,65.03
2022-12-18T04:35:16.270Z,66.67
2022-12-18T04:37:50.429Z,56.47
2022-12-18T04:45:29.223Z,42.00
2022-12-18T04:50:36.494Z,56.42
2022-12-18T04:53:09.171Z,57.37
2022-12-18T04:55:42.845Z,60.70
2022-12-18T04:58:15.560Z,51.53
2022-12-18T05:03:20.903Z,55.47
2022-12-18T05:08:28.166Z,56.97
2022-12-18T05:11:02.159Z,50.43
2022-12-18T05:13:35.866Z,52.77
2022-12-18T05:16:09.675Z,51.07
2022-12-18T05:18:42.829Z,48.97
2022-12-18T05:21:17.229Z,52.77
2022-12-18T05:23:50.132Z,47.37
2022-12-18T05:28:55.606Z,51.78
2022-12-18T05:31:28.792Z,46.63
2022-12-18T05:34:01.718Z,47.13
2022-12-18T05:36:36.401Z,52.17
2022-12-18T05:39:09.788Z,51.90
2022-12-18T05:41:42.890Z,51.60
2022-12-18T05:44:16.207Z,49.63
2022-12-18T05:46:49.150Z,47.70
2022-12-18T05:49:21.991Z,55.47
2022-12-18T05:54:29.413Z,49.20
2022-12-18T05:57:02.386Z,47.90
2022-12-18T06:02:08.086Z,51.35
2022-12-18T06:04:41.003Z,51.07
2022-12-18T06:07:15.211Z,50.27
2022-12-18T06:09:47.980Z,42.40
2022-12-18T06:14:53.412Z,43.05
2022-12-18T06:20:03.221Z,45.87
2022-12-18T06:22:37.532Z,42.73
2022-12-18T06:25:10.756Z,46.57
2022-12-18T06:27:43.702Z,49.97
2022-12-18T06:30:17.621Z,41.07
2022-12-18T06:32:56.401Z,50.87
2022-12-18T06:35:29.637Z,49.77
2022-12-18T06:40:39.138Z,46.43
2022-12-18T06:43:11.962Z,40.33
2022-12-18T06:48:17.402Z,46.92
2022-12-18T06:50:50.213Z,46.58
2022-12-18T06:53:24.998Z,45.43
2022-12-18T06:56:07.879Z,44.87
2022-12-18T06:58:43.353Z,49.43
2022-12-18T07:01:16.356Z,44.07
2022-12-18T07:03:54.007Z,44.13
2022-12-18T07:06:28.157Z,40.73
2022-12-18T07:09:02.703Z,44.23
2022-12-18T07:11:35.979Z,45.30
2022-12-18T07:14:08.851Z,36.93
2022-12-18T07:19:15.465Z,45.85
2022-12-18T07:21:48.416Z,44.63
2022-12-18T07:26:55.534Z,39.57
2022-12-18T07:32:01.123Z,32.75
2022-12-18T07:34:34.307Z,39.17
2022-12-18T07:37:08.224Z,41.27
2022-12-18T07:39:42.646Z,43.37
2022-12-18T07:42:34.245Z,38.70
2022-12-18T07:45:08.340Z,39.57
2022-12-18T07:47:42.235Z,44.47
2022-12-18T07:50:15.160Z,39.57
2022-12-18T07:52:49.359Z,38.53
2022-12-18T07:55:24.577Z,38.37
2022-12-18T07:58:01.025Z,42.93
2022-12-18T08:00:34.226Z,39.17
2022-12-18T08:03:07.076Z,38.10
2022-12-18T08:08:13.480Z,36.47
2022-12-18T08:10:48.286Z,39.57
2022-12-18T08:13:21.058Z,35.40
2022-12-18T08:18:34.524Z,38.20
2022-12-18T08:21:11.479Z,35.03
2022-12-18T08:23:45.489Z,35.83
2022-12-18T08:26:19.950Z,33.27
2022-12-18T08:28:55.883Z,39.30
2022-12-18T08:31:30.815Z,32.30
2022-12-18T08:34:04.011Z,33.23
2022-12-18T08:39:10.264Z,30.03
2022-12-18T08:42:09.904Z,35.30
2022-12-18T08:44:43.117Z,27.50
2022-12-18T08:49:48.654Z,31.25
2022-12-18T08:52:21.571Z,33.60
2022-12-18T08:54:54.324Z,27.43
2022-12-18T09:00:01.510Z,34.53
2022-12-18T09:05:07.884Z,32.42
2022-12-18T09:07:40.717Z,29.07
2022-12-18T09:12:48.016Z,27.13
2022-12-18T09:15:20.977Z,28.50
2022-12-18T09:17:55.204Z,32.10
2022-12-18T09:20:30.904Z,31.03
2022-12-18T09:23:03.788Z,29.37
2022-12-18T09:28:16.997Z,33.42
2022-12-18T09:30:51.459Z,28.97
2022-12-18T09:33:24.565Z,27.20
2022-12-18T09:35:57.390Z,30.47
2022-12-18T09:41:08.721Z,26.67
2022-12-18T09:43:48.271Z,29.03
2022-12-18T09:46:27.818Z,26.43
2022-12-18T09:49:05.076Z,30.77
2022-12-18T09:51:42.848Z,25.93
2022-12-18T09:54:22.832Z,28.10
2022-12-18T09:56:56.122Z,30.03
2022-12-18T09:59:36.355Z,28.17
2022-12-18T10:02:22.247Z,27.87
2022-12-18T10:05:09.125Z,27.27
2022-12-18T10:07:51.971Z,27.40
2022-12-18T10:10:43.993Z,26.33
2022-12-18T10:13:25.435Z,30.07
2022-12-18T10:16:13.230Z,25.97
2022-12-18T10:19:14.877Z,27.33
2022-12-18T10:21:55.182Z,29.43
2022-12-18T10:24:37.663Z,25.10
2022-12-18T10:27:16.589Z,29.38
2022-12-18T10:29:49.971Z,25.43
2022-12-18T10:32:26.899Z,30.00
2022-12-18T10:35:01.127Z,25.53
2022-12-18T10:37:34.617Z,25.27
2022-12-18T10:40:16.675Z,25.30
2022-12-18T10:43:07.273Z,27.53
2022-12-18T10:45:40.314Z,24.50
2022-12-18T10:48:24.619Z,25.97
2022-12-18T10:51:10.870Z,27.70
2022-12-18T10:53:55.041Z,21.10
2022-12-18T10:56:30.175Z,24.90
2022-12-18T10:59:05.866Z,25.43
2022-12-18T11:01:49.592Z,25.73
2022-12-18T11:04:25.602Z,24.27
2022-12-18T11:07:02.959Z,29.03
2022-12-18T11:09:40.009Z,22.70
2022-12-18T11:12:19.348Z,23.47
2022-12-18T11:14:54.494Z,23.80
2022-12-18T11:17:34.643Z,24.17
2022-12-18T11:20:23.922Z,20.47
2022-12-18T11:22:58.576Z,21.53
2022-12-18T11:25:34.719Z,25.47
2022-12-18T11:28:30.316Z,22.60
2022-12-18T11:31:21.425Z,26.03
2022-12-18T11:36:56.972Z,22.60
2022-12-18T11:39:40.203Z,20.87
2022-12-18T11:42:22.247Z,20.83
2022-12-18T11:45:00.112Z,20.07
2022-12-18T11:47:41.221Z,23.10
2022-12-18T11:50:18.630Z,21.53
2022-12-18T11:52:58.190Z,23.50
2022-12-18T11:55:49.193Z,22.50
2022-12-18T11:58:35.183Z,20.27
2022-12-18T12:01:19.722Z,21.90
2022-12-18T12:04:11.187Z,21.03
2022-12-18T12:06:54.203Z,23.17
2022-12-18T12:09:39.967Z,18.33
2022-12-18T12:12:30.359Z,22.47
2022-12-18T12:15:15.075Z,26.10
2022-12-18T12:17:54.743Z,22.10
2022-12-18T12:20:40.036Z,23.20
2022-12-18T12:23:23.521Z,22.37
2022-12-18T12:26:06.440Z,21.23
2022-12-18T12:28:54.700Z,22.07
2022-12-18T12:31:38.256Z,26.07
2022-12-18T12:34:18.743Z,25.97
2022-12-18T12:37:05.229Z,20.80
2022-12-18T12:39:41.675Z,22.57
2022-12-18T12:42:43.462Z,22.27
2022-12-18T12:45:24.834Z,22.83
2022-12-18T12:47:59.899Z,21.40
2022-12-18T12:50:38.324Z,21.43
2022-12-18T12:53:23.406Z,24.30
2022-12-18T12:55:57.572Z,24.30
2022-12-18T12:58:39.086Z,23.43
2022-12-18T13:01:30.236Z,23.83
2022-12-18T13:04:16.782Z,22.90
2022-12-18T13:06:56.752Z,22.13
2022-12-18T13:09:34.991Z,23.67
2022-12-18T13:12:34.975Z,25.07
2022-12-18T13:15:24.664Z,24.03
2022-12-18T13:18:09.855Z,25.07
2022-12-18T13:20:50.706Z,28.93
2022-12-18T13:23:30.896Z,23.15
2022-12-18T13:26:39.759Z,24.40
2022-12-18T13:29:12.783Z,26.67
2022-12-18T13:32:23.451Z,23.93
2022-12-18T13:35:33.758Z,26.30
2022-12-18T13:38:23.319Z,24.13
2022-12-18T13:41:01.081Z,24.97
2022-12-18T13:43:42.311Z,22.23
2022-12-18T13:46:25.602Z,25.10
2022-12-18T13:49:04.426Z,23.80
2022-12-18T13:51:37.813Z,28.10
2022-12-18T13:54:21.852Z,22.20
2022-12-18T13:56:55.781Z,26.60
2022-12-18T13:59:39.428Z,25.97
2022-12-18T14:02:18.151Z,26.13
2022-12-18T14:04:54.263Z,31.00
2022-12-18T14:07:33.093Z,24.70
2022-12-18T14:10:44.291Z,25.50
2022-12-18T14:13:16.223Z,27.60
2022-12-18T14:15:52.416Z,26.37
2022-12-18T14:18:27.842Z,24.23
2022-12-18T14:21:08.625Z,30.40
2022-12-18T14:23:44.568Z,28.43
2022-12-18T14:26:25.408Z,28.33
2022-12-18T14:28:59.763Z,27.37
2022-12-18T14:31:34.191Z,28.30
2022-12-18T14:34:10.797Z,38.33
2022-12-18T14:36:55.110Z,29.60
2022-12-18T14:39:30.963Z,27.33
2022-12-18T14:42:06.494Z,32.33
2022-12-18T14:45:05.241Z,27.80
2022-12-18T14:47:35.475Z,28.90
2022-12-18T14:50:18.099Z,28.30
2022-12-18T14:52:53.213Z,30.97
2022-12-18T14:55:28.347Z,29.30
2022-12-18T14:58:04.517Z,30.00
2022-12-18T15:00:44.150Z,29.17
2022-12-18T15:03:21.339Z,31.67
2022-12-18T15:05:57.063Z,35.03
2022-12-18T15:08:37.874Z,33.47
2022-12-18T15:11:28.094Z,32.13
2022-12-18T15:14:04.871Z,28.23
2022-12-18T15:16:46.248Z,30.93
2022-12-18T15:19:22.728Z,33.47
2022-12-18T15:22:06.339Z,31.73
2022-12-18T15:24:41.465Z,34.60
2022-12-18T15:27:26.495Z,32.13
2022-12-18T15:30:20.223Z,34.23
2022-12-18T15:37:23.831Z,33.97
2022-12-18T15:40:21.421Z,36.63
2022-12-18T15:43:14.991Z,37.50
2022-12-18T15:45:50.352Z,32.40
2022-12-18T15:48:46.978Z,34.77
2022-12-18T15:51:25.549Z,32.60
2022-12-18T15:54:04.754Z,30.43
2022-12-18T15:57:01.425Z,32.40
2022-12-18T15:59:35.461Z,33.90
2022-12-18T16:02:17.901Z,36.77
2022-12-18T16:04:52.257Z,35.53
2022-12-18T16:07:28.087Z,34.90
2022-12-18T16:10:05.253Z,36.30
2022-12-18T16:12:40.236Z,36.93
2022-12-18T16:15:22.495Z,40.30
2022-12-18T16:17:59.386Z,38.77
2022-12-18T16:20:32.316Z,42.30
2022-12-18T16:23:05.277Z,34.93
2022-12-18T16:25:38.421Z,35.97
2022-12-18T16:28:13.570Z,35.40
2022-12-18T16:30:49.714Z,37.57
2022-12-18T16:33:25.036Z,42.47
2022-12-18T16:35:58.469Z,37.70
2022-12-18T16:38:39.957Z,36.10
2022-12-18T16:41:38.642Z,37.50
2022-12-18T16:44:13.361Z,33.97
2022-12-18T16:46:47.435Z,35.97
2022-12-18T16:49:22.640Z,43.20
2022-12-18T16:51:56.033Z,40.43
2022-12-18T16:54:30.418Z,38.40
2022-12-18T16:57:24.017Z,37.73
2022-12-18T17:00:04.757Z,37.00
2022-12-18T17:02:39.485Z,36.10
2022-12-18T17:05:13.739Z,39.00
2022-12-18T17:07:46.994Z,42.10
2022-12-18T17:10:20.035Z,41.67
2022-12-18T17:12:52.933Z,40.40
2022-12-18T17:17:59.926Z,39.77
2022-12-18T17:20:33.258Z,43.73
2022-12-18T17:23:06.294Z,39.20
2022-12-18T17:25:41.115Z,35.30
2022-12-18T17:28:13.959Z,42.87
2022-12-18T17:33:21.475Z,38.53
2022-12-18T17:35:55.110Z,42.93
2022-12-18T17:38:27.909Z,39.63
2022-12-18T17:43:36.449Z,40.60
2022-12-18T17:46:15.286Z,42.27
2022-12-18T17:48:50.075Z,41.73
2022-12-18T17:51:23.188Z,41.73
2022-12-18T17:53:56.100Z,41.70
2022-12-18T17:59:02.084Z,40.33
2022-12-18T18:01:43.764Z,40.60
2022-12-18T18:04:20.012Z,41.90
2022-12-18T18:06:52.956Z,42.27
2022-12-18T18:12:16.091Z,42.53
2022-12-18T18:14:49.239Z,43.10
2022-12-18T18:17:23.814Z,46.80
2022-12-18T18:19:57.065Z,44.80
2022-12-18T18:22:30.273Z,43.03
2022-12-18T18:25:04.166Z,44.83
2022-12-18T18:27:40.641Z,43.20
2022-12-18T18:30:14.670Z,45.03
2022-12-18T18:32:48.824Z,42.73
2022-12-18T18:35:52.233Z,44.57
2022-12-18T18:38:15.698Z,41.08
2022-12-18T18:40:48.793Z,45.67
2022-12-18T18:43:24.412Z,44.87
2022-12-18T18:45:58.440Z,38.90
2022-12-18T18:48:35.743Z,43.83
2022-12-18T18:51:12.625Z,47.78
2022-12-18T18:53:51.061Z,40.40
2022-12-18T18:59:22.419Z,44.30
2022-12-18T19:02:04.301Z,50.30
2022-12-18T19:04:45.785Z,43.78
2022-12-18T19:07:29.493Z,46.67
2022-12-18T19:10:05.401Z,49.47
2022-12-18T19:12:56.123Z,47.42
2022-12-18T19:15:29.055Z,50.73
2022-12-18T19:18:02.219Z,45.58
2022-12-18T19:20:36.925Z,46.73
2022-12-18T19:23:10.035Z,53.72
2022-12-18T19:25:44.059Z,46.83
2022-12-18T19:28:21.166Z,47.07
2022-12-18T19:30:59.340Z,46.50
2022-12-18T19:33:43.037Z,52.45
2022-12-18T19:36:20.814Z,48.88
2022-12-18T19:38:56.403Z,50.47
2022-12-18T19:41:31.399Z,44.57
2022-12-18T19:44:07.714Z,43.97
2022-12-18T19:46:42.324Z,48.03
2022-12-18T19:49:18.398Z,50.42
2022-12-18T19:51:55.335Z,49.03
2022-12-18T19:54:28.190Z,46.65
2022-12-18T19:59:33.755Z,45.83
2022-12-18T20:04:40.311Z,52.17
2022-12-18T20:07:14.732Z,57.87
2022-12-18T20:09:48.060Z,51.90
2022-12-18T20:12:21.082Z,46.33
2022-12-18T20:17:30.130Z,50.13
2022-12-18T20:20:04.549Z,50.45
2022-12-18T20:22:39.149Z,49.10
2022-12-18T20:25:11.991Z,52.22
2022-12-18T20:27:44.999Z,55.95
2022-12-18T20:30:17.834Z,52.28
2022-12-18T20:35:23.241Z,52.30
2022-12-18T20:37:57.858Z,51.22
2022-12-18T20:40:31.623Z,50.42
2022-12-18T20:43:04.714Z,54.28
2022-12-18T20:45:38.826Z,46.20
2022-12-18T20:48:19.241Z,51.83
2022-12-18T20:51:00.050Z,47.40
2022-12-18T20:53:37.834Z,51.78
2022-12-18T20:56:21.154Z,49.92
2022-12-18T20:59:03.346Z,53.67
2022-12-18T21:01:36.517Z,49.67
2022-12-18T21:04:11.564Z,47.80
2022-12-18T21:06:49.447Z,47.63
2022-12-18T21:09:27.881Z,49.50
2022-12-18T21:12:25.347Z,49.47
2022-12-18T21:14:59.507Z,48.63
2022-12-18T21:17:33.097Z,52.13
2022-12-18T21:20:17.282Z,46.22
2022-12-18T21:22:50.684Z,47.17
2022-12-18T21:25:27.423Z,48.08
2022-12-18T21:28:00.266Z,48.40
2022-12-18T21:33:06.298Z,48.25
2022-12-18T21:35:39.205Z,45.85
2022-12-18T21:40:46.071Z,52.28
2022-12-18T21:43:36.460Z,49.78
2022-12-18T21:46:09.977Z,52.00
2022-12-18T21:48:43.457Z,51.58
2022-12-18T21:51:16.258Z,45.63
2022-12-18T21:53:49.392Z,48.17
2022-12-18T21:56:24.310Z,52.60
2022-12-18T21:58:57.504Z,49.38
2022-12-18T22:01:37.366Z,47.93
2022-12-18T22:04:11.319Z,48.67
2022-12-18T22:06:44.750Z,51.35
2022-12-18T22:09:19.573Z,53.33
2022-12-18T22:11:54.212Z,47.83
2022-12-18T22:14:27.187Z,45.92
2022-12-18T22:19:34.723Z,40.85
2022-12-18T22:22:11.071Z,56.22
2022-12-18T22:27:17.951Z,48.05
2022-12-18T22:30:05.061Z,45.75
2022-12-18T22:32:37.996Z,48.95
2022-12-18T22:37:48.942Z,49.17
2022-12-18T22:40:27.779Z,46.35
2022-12-18T22:43:02.452Z,43.33
2022-12-18T22:45:36.298Z,49.95
2022-12-18T22:48:11.308Z,47.65
2022-12-18T22:50:45.911Z,44.63
2022-12-18T22:53:18.814Z,45.17
2022-12-18T22:55:51.609Z,46.33
2022-12-18T22:58:25.919Z,46.50
2022-12-18T23:00:58.742Z,52.05
2022-12-18T23:06:06.958Z,45.83
2022-12-18T23:08:39.890Z,44.35
2022-12-18T23:13:48.295Z,45.28
2022-12-18T23:16:22.730Z,45.22
2022-12-18T23:18:56.642Z,41.95
2022-12-18T23:21:29.517Z,43.70
2022-12-18T23:24:03.830Z,44.60
2022-12-18T23:26:36.830Z,43.88
2022-12-18T23:31:43.906Z,44.63
2022-12-18T23:34:17.879Z,42.38
2022-12-18T23:36:54.577Z,48.60
2022-12-18T23:39:30.385Z,44.85
2022-12-18T23:42:03.426Z,44.72
2022-12-18T23:44:38.326Z,44.33
2022-12-18T23:47:11.114Z,41.95
2022-12-18T23:49:43.962Z,41.85
2022-12-18T23:54:49.366Z,47.00
2022-12-18T23:57:22.163Z,40.08
2022-12-18T23:59:59.205Z,40.53
